Vilnius, Lithuania
Current Conditions -  °F | °C
As of 12:50 AM on Tuesday 23 Dec 2014 (Local Time) from EYVI Reporting Station
Overcast Overcast  
Wind Chill: 36°   Ceiling: 1100
Heat Index: 43°   Visibility: 4mi
Dew Point: 39°   Wind: 14mph
Humidity: 87%   Direction: 270°W
Pressure: 29.29"   Gusts: NA
Location:  54.7°N, 25.27°E
Report Text: EYVI 222150Z 27012KT 7000 BKN011 OVC016 06/04 Q0992 R20/2/0195 NOSIG
Loading
Personal Weather Stations






























Interactive Weather Map New forecast layout! Learn more

10-Day Weather Forecast

Advertisements
Track Severe Weather on mobile